createdAt,value
2023-03-31T00:00:19.117Z,3.25
2023-03-31T00:02:46.271Z,3.03
2023-03-31T00:05:18.317Z,3.35
2023-03-31T00:07:46.201Z,2.92
2023-03-31T00:10:18.373Z,3.22
2023-03-31T00:12:45.877Z,3.00
2023-03-31T00:15:12.282Z,4.25
2023-03-31T00:17:38.752Z,3.38
2023-03-31T00:20:06.037Z,3.20
2023-03-31T00:22:32.423Z,3.63
2023-03-31T00:24:58.823Z,3.28
2023-03-31T00:27:25.366Z,3.08
2023-03-31T00:29:53.051Z,2.85
2023-03-31T00:32:19.455Z,2.83
2023-03-31T00:34:46.263Z,3.50
2023-03-31T00:37:15.990Z,3.33
2023-03-31T00:39:43.406Z,3.10
2023-03-31T00:42:15.620Z,2.92
2023-03-31T00:45:03.137Z,3.50
2023-03-31T00:47:30.148Z,3.28
2023-03-31T00:49:57.573Z,2.97
2023-03-31T00:52:27.656Z,3.88
2023-03-31T00:54:59.224Z,3.50
2023-03-31T00:57:28.605Z,3.63
2023-03-31T00:59:59.179Z,3.25
2023-03-31T01:02:26.008Z,3.67
2023-03-31T01:04:57.300Z,4.00
2023-03-31T01:07:30.492Z,3.53
2023-03-31T01:10:02.040Z,3.83
2023-03-31T01:12:28.889Z,4.15
2023-03-31T01:14:55.487Z,3.90
2023-03-31T01:17:22.628Z,4.30
2023-03-31T01:20:01.685Z,4.05
2023-03-31T01:22:39.016Z,3.58
2023-03-31T01:25:24.084Z,4.28
2023-03-31T01:27:56.771Z,4.15
2023-03-31T01:30:23.171Z,3.97
2023-03-31T01:33:16.610Z,4.15
2023-03-31T01:36:04.999Z,3.63
2023-03-31T01:38:40.489Z,4.17
2023-03-31T01:41:09.580Z,3.75
2023-03-31T01:43:45.312Z,3.85
2023-03-31T01:46:30.740Z,3.95
2023-03-31T01:49:00.708Z,4.00
2023-03-31T01:51:27.086Z,4.15
2023-03-31T01:54:25.728Z,3.35
2023-03-31T01:56:56.993Z,4.22
2023-03-31T01:59:27.294Z,4.32
2023-03-31T02:01:59.462Z,4.32
2023-03-31T02:04:32.807Z,4.32
2023-03-31T02:07:31.810Z,4.03
2023-03-31T02:10:00.448Z,4.68
2023-03-31T02:12:28.226Z,4.22
2023-03-31T02:14:56.307Z,3.65
2023-03-31T02:17:30.453Z,3.80
2023-03-31T02:19:58.374Z,3.85
2023-03-31T02:22:25.677Z,3.53
2023-03-31T02:24:53.356Z,3.72
2023-03-31T02:27:27.086Z,4.10
2023-03-31T02:29:54.212Z,3.88
2023-03-31T02:32:26.655Z,5.05
2023-03-31T02:34:54.232Z,4.22
2023-03-31T02:37:20.878Z,4.55
2023-03-31T02:39:49.422Z,4.95
2023-03-31T02:42:16.170Z,4.70
2023-03-31T02:44:42.734Z,4.57
2023-03-31T02:47:13.167Z,4.18
2023-03-31T02:49:41.853Z,4.70
2023-03-31T02:52:14.335Z,4.05
2023-03-31T02:54:43.847Z,3.97
2023-03-31T02:59:39.606Z,3.53
2023-03-31T03:02:18.198Z,3.70
2023-03-31T03:04:44.638Z,3.40
2023-03-31T03:07:29.928Z,3.28
2023-03-31T03:10:16.518Z,3.60
2023-03-31T03:12:50.307Z,3.72
2023-03-31T03:15:19.474Z,2.90
2023-03-31T03:17:47.226Z,2.72
2023-03-31T03:20:16.206Z,2.83
2023-03-31T03:22:43.019Z,2.78
2023-03-31T03:25:10.622Z,2.83
2023-03-31T03:27:37.577Z,2.95
2023-03-31T03:30:05.394Z,2.70
2023-03-31T03:32:33.783Z,2.45
2023-03-31T03:35:00.958Z,2.40
2023-03-31T03:37:27.659Z,2.33
2023-03-31T03:39:54.072Z,2.80
2023-03-31T03:42:20.624Z,2.45
2023-03-31T03:44:47.316Z,2.42
2023-03-31T03:47:13.920Z,2.55
2023-03-31T03:49:40.437Z,3.13
2023-03-31T03:52:06.875Z,2.67
2023-03-31T03:54:33.298Z,2.65
2023-03-31T03:56:59.771Z,2.80
2023-03-31T03:59:26.453Z,3.00
2023-03-31T04:01:52.940Z,2.92
2023-03-31T04:04:19.522Z,3.25
2023-03-31T04:06:45.926Z,3.45
2023-03-31T04:09:12.357Z,3.45
2023-03-31T04:11:38.914Z,3.63
2023-03-31T04:14:05.366Z,3.72
2023-03-31T04:16:32.522Z,3.20
2023-03-31T04:18:59.518Z,3.10
2023-03-31T04:21:26.049Z,3.42
2023-03-31T04:24:01.841Z,2.95
2023-03-31T04:26:38.973Z,3.13
2023-03-31T04:29:06.256Z,3.38
2023-03-31T04:31:34.074Z,3.53
2023-03-31T04:34:02.682Z,3.40
2023-03-31T04:36:31.507Z,3.15
2023-03-31T04:38:57.942Z,3.70
2023-03-31T04:41:25.135Z,3.55
2023-03-31T04:43:51.578Z,3.97
2023-03-31T04:46:18.154Z,3.88
2023-03-31T04:48:44.653Z,3.50
2023-03-31T04:51:11.244Z,4.15
2023-03-31T04:53:37.636Z,4.20
2023-03-31T04:56:04.654Z,3.95
2023-03-31T04:58:31.290Z,3.78
2023-03-31T05:00:57.764Z,3.75
2023-03-31T05:03:24.336Z,3.47
2023-03-31T05:05:50.940Z,4.45
2023-03-31T05:08:17.475Z,4.28
2023-03-31T05:10:44.053Z,4.53
2023-03-31T05:13:11.204Z,4.20
2023-03-31T05:15:38.490Z,3.90
2023-03-31T05:18:05.073Z,3.83
2023-03-31T05:20:31.667Z,4.13
2023-03-31T05:22:58.199Z,4.82
2023-03-31T05:25:25.074Z,3.83
2023-03-31T05:27:51.847Z,3.97
2023-03-31T05:30:18.586Z,5.15
2023-03-31T05:32:45.191Z,5.18
2023-03-31T05:35:11.685Z,4.75
2023-03-31T05:37:38.431Z,4.97
2023-03-31T05:40:05.316Z,4.35
2023-03-31T05:42:32.031Z,4.68
2023-03-31T05:44:58.622Z,4.55
2023-03-31T05:47:25.334Z,4.70
2023-03-31T05:49:52.128Z,4.30
2023-03-31T05:52:18.860Z,4.28
2023-03-31T05:54:45.561Z,4.03
2023-03-31T05:57:12.088Z,4.88
2023-03-31T05:59:40.887Z,4.15
2023-03-31T06:02:07.424Z,4.63
2023-03-31T06:04:33.961Z,4.97
2023-03-31T06:07:00.409Z,3.92
2023-03-31T06:09:27.060Z,5.00
2023-03-31T06:11:53.470Z,4.93
2023-03-31T06:14:20.022Z,4.30
2023-03-31T06:16:48.162Z,4.35
2023-03-31T06:19:15.006Z,3.60
2023-03-31T06:21:41.425Z,4.13
2023-03-31T06:24:09.069Z,4.20
2023-03-31T06:26:35.882Z,4.25
2023-03-31T06:29:02.485Z,3.53
2023-03-31T06:31:29.038Z,3.13
2023-03-31T06:33:55.790Z,3.83
2023-03-31T06:36:22.643Z,3.88
2023-03-31T06:38:49.932Z,3.72
2023-03-31T06:41:17.453Z,3.20
2023-03-31T06:43:44.089Z,3.22
2023-03-31T06:46:11.073Z,3.30
2023-03-31T06:48:37.758Z,3.50
2023-03-31T06:51:05.761Z,3.70
2023-03-31T06:53:32.564Z,4.22
2023-03-31T06:55:59.122Z,4.22
2023-03-31T06:58:26.389Z,3.55
2023-03-31T07:00:54.229Z,3.40
2023-03-31T07:03:25.416Z,3.85
2023-03-31T07:05:52.950Z,3.95
2023-03-31T07:08:19.908Z,4.15
2023-03-31T07:10:49.349Z,4.07
2023-03-31T07:15:42.913Z,4.50
2023-03-31T07:18:09.712Z,4.40
2023-03-31T07:20:36.312Z,4.15
2023-03-31T07:23:03.887Z,3.75
2023-03-31T07:25:30.623Z,4.15
2023-03-31T07:27:57.028Z,4.30
2023-03-31T07:30:24.636Z,4.50
2023-03-31T07:32:52.005Z,4.57
2023-03-31T07:35:18.705Z,6.38
2023-03-31T07:37:46.730Z,5.25
2023-03-31T07:40:21.686Z,4.60
2023-03-31T07:42:49.467Z,4.72
2023-03-31T07:45:16.791Z,4.30
2023-03-31T07:47:44.836Z,3.88
2023-03-31T07:50:11.396Z,4.65
2023-03-31T07:52:38.340Z,5.03
2023-03-31T07:55:05.350Z,4.32
2023-03-31T07:57:31.854Z,4.57
2023-03-31T07:59:58.287Z,4.65
2023-03-31T08:02:24.944Z,4.85
2023-03-31T08:04:51.706Z,5.05
2023-03-31T08:07:18.203Z,4.30
2023-03-31T08:09:46.115Z,4.95
2023-03-31T08:12:13.923Z,5.03
2023-03-31T08:14:41.528Z,5.82
2023-03-31T08:17:08.936Z,5.70
2023-03-31T08:19:35.408Z,5.45
2023-03-31T08:22:01.852Z,5.60
2023-03-31T08:24:28.337Z,5.72
2023-03-31T08:26:54.974Z,5.38
2023-03-31T08:29:21.528Z,5.10
2023-03-31T08:31:48.027Z,5.32
2023-03-31T08:34:14.463Z,5.60
2023-03-31T08:36:41.274Z,6.07
2023-03-31T08:39:07.828Z,5.75
2023-03-31T08:41:37.344Z,5.15
2023-03-31T08:44:07.679Z,4.95
2023-03-31T08:46:35.739Z,5.22
2023-03-31T08:49:03.436Z,4.97
2023-03-31T08:51:36.739Z,4.63
2023-03-31T08:54:05.726Z,5.10
2023-03-31T08:56:34.912Z,5.43
2023-03-31T08:59:02.817Z,5.55
2023-03-31T09:01:37.978Z,6.13
2023-03-31T09:04:29.667Z,6.22
2023-03-31T09:06:58.867Z,5.65
2023-03-31T09:09:34.425Z,5.35
2023-03-31T09:12:07.644Z,6.10
2023-03-31T09:14:33.994Z,5.88
2023-03-31T09:17:01.176Z,6.80
2023-03-31T09:19:30.593Z,7.05
2023-03-31T09:21:57.281Z,6.30
2023-03-31T09:24:36.835Z,7.10
2023-03-31T09:27:06.327Z,6.43
2023-03-31T09:29:42.125Z,6.20
2023-03-31T09:32:15.868Z,5.20
2023-03-31T09:34:43.180Z,6.13
2023-03-31T09:37:10.625Z,6.45
2023-03-31T09:39:38.542Z,5.72
2023-03-31T09:42:05.370Z,5.63
2023-03-31T09:44:43.120Z,5.57
2023-03-31T09:47:30.183Z,5.57
2023-03-31T09:49:56.694Z,5.90
2023-03-31T09:52:27.790Z,6.07
2023-03-31T09:54:55.821Z,5.47
2023-03-31T09:57:32.829Z,5.85
2023-03-31T10:00:14.014Z,5.57
2023-03-31T10:02:50.401Z,5.53
2023-03-31T10:05:26.301Z,5.97
2023-03-31T10:07:54.338Z,5.85
2023-03-31T10:10:29.818Z,6.05
2023-03-31T10:12:56.693Z,5.03
2023-03-31T10:15:26.428Z,6.47
2023-03-31T10:17:55.412Z,5.18
2023-03-31T10:22:48.717Z,4.72
2023-03-31T10:25:21.458Z,5.28
2023-03-31T10:27:49.252Z,5.43
2023-03-31T10:30:20.746Z,4.65
2023-03-31T10:32:49.958Z,6.18
2023-03-31T10:35:21.550Z,5.47
2023-03-31T10:37:48.712Z,4.82
2023-03-31T10:40:16.368Z,4.90
2023-03-31T10:42:46.472Z,4.45
2023-03-31T10:45:36.381Z,4.38
2023-03-31T10:48:04.759Z,4.22
2023-03-31T10:50:35.743Z,3.85
2023-03-31T10:53:04.167Z,3.88
2023-03-31T10:55:35.802Z,3.72
2023-03-31T10:58:06.452Z,4.65
2023-03-31T11:00:48.090Z,3.97
2023-03-31T11:03:23.270Z,4.05
2023-03-31T11:05:52.038Z,3.97
2023-03-31T11:08:33.365Z,4.25
2023-03-31T11:11:02.948Z,3.75
2023-03-31T11:13:29.490Z,4.38
2023-03-31T11:16:04.656Z,4.88
2023-03-31T11:18:31.279Z,3.88
2023-03-31T11:20:57.724Z,3.70
2023-03-31T11:23:44.255Z,3.75
2023-03-31T11:26:17.042Z,3.70
2023-03-31T11:29:02.228Z,3.65
2023-03-31T11:31:43.750Z,3.78
2023-03-31T11:34:10.423Z,4.15
2023-03-31T11:36:52.305Z,3.28
2023-03-31T11:39:24.626Z,3.97
2023-03-31T11:41:53.640Z,3.88
2023-03-31T11:44:22.030Z,3.03
2023-03-31T11:46:54.534Z,4.28
2023-03-31T11:49:21.417Z,3.00
2023-03-31T11:51:59.067Z,3.05
2023-03-31T11:54:34.580Z,3.13
2023-03-31T11:57:03.520Z,3.33
2023-03-31T11:59:32.031Z,3.38
2023-03-31T12:02:18.750Z,3.33
2023-03-31T12:04:56.457Z,3.53
2023-03-31T12:07:26.085Z,2.78
2023-03-31T12:10:05.676Z,3.03
2023-03-31T12:12:52.429Z,3.17
2023-03-31T12:15:25.170Z,3.47
2023-03-31T12:18:00.684Z,4.00
2023-03-31T12:20:35.366Z,3.42
2023-03-31T12:23:03.898Z,3.83
2023-03-31T12:25:40.083Z,3.83
2023-03-31T12:28:06.638Z,3.75
2023-03-31T12:30:39.310Z,3.83
2023-03-31T12:33:07.611Z,4.13
2023-03-31T12:35:43.481Z,4.00
2023-03-31T12:38:17.824Z,4.90
2023-03-31T12:40:55.221Z,3.90
2023-03-31T12:43:47.124Z,3.83
2023-03-31T12:46:18.071Z,3.20
2023-03-31T12:49:00.641Z,3.50
2023-03-31T12:51:46.000Z,4.20
2023-03-31T12:54:21.815Z,3.53
2023-03-31T12:57:17.709Z,3.67
2023-03-31T12:59:44.936Z,3.08
2023-03-31T13:02:11.623Z,4.07
2023-03-31T13:04:38.876Z,3.17
2023-03-31T13:07:27.252Z,2.83
2023-03-31T13:09:58.685Z,3.60
2023-03-31T13:12:28.228Z,3.17
2023-03-31T13:15:00.209Z,3.53
2023-03-31T13:17:28.657Z,3.40
2023-03-31T13:19:56.254Z,3.80
2023-03-31T13:22:36.281Z,3.58
2023-03-31T13:25:21.577Z,3.63
2023-03-31T13:27:53.354Z,3.35
2023-03-31T13:30:38.540Z,3.70
2023-03-31T13:33:12.075Z,3.88
2023-03-31T13:35:42.725Z,3.80
2023-03-31T13:38:09.261Z,4.40
2023-03-31T13:40:51.060Z,3.00
2023-03-31T13:43:32.739Z,3.30
2023-03-31T13:46:06.318Z,2.65
2023-03-31T13:48:56.281Z,1.40
2023-03-31T13:51:25.903Z,1.40
2023-03-31T13:53:54.603Z,1.25
2023-03-31T13:56:28.369Z,1.40
2023-03-31T13:59:13.613Z,1.50
2023-03-31T14:01:43.147Z,1.33
2023-03-31T14:04:15.641Z,1.17
2023-03-31T14:06:47.279Z,1.55
2023-03-31T14:09:20.119Z,1.33
2023-03-31T14:11:46.857Z,1.38
2023-03-31T14:14:15.697Z,1.40
2023-03-31T14:16:46.442Z,1.80
2023-03-31T14:19:28.397Z,1.23
2023-03-31T14:22:01.032Z,1.33
2023-03-31T14:24:36.340Z,1.77
2023-03-31T14:27:18.767Z,1.33
2023-03-31T14:29:54.431Z,1.30
2023-03-31T14:32:21.209Z,1.48
2023-03-31T14:34:59.996Z,1.20
2023-03-31T14:37:28.154Z,1.33
2023-03-31T14:39:56.761Z,1.10
2023-03-31T14:42:23.585Z,1.30
2023-03-31T14:44:55.157Z,1.30
2023-03-31T14:47:22.603Z,1.10
2023-03-31T14:49:58.715Z,1.20
2023-03-31T14:52:25.299Z,1.15
2023-03-31T14:54:52.912Z,1.10
2023-03-31T14:57:23.462Z,1.15
2023-03-31T14:59:51.842Z,1.20
2023-03-31T15:02:21.226Z,0.90
2023-03-31T15:07:16.245Z,0.93
2023-03-31T15:09:44.219Z,1.00
2023-03-31T15:12:12.759Z,0.70
2023-03-31T15:14:42.737Z,0.67
2023-03-31T15:17:17.448Z,0.80
2023-03-31T15:19:43.893Z,0.70
2023-03-31T15:22:18.965Z,0.60
2023-03-31T15:24:46.554Z,0.98
2023-03-31T15:27:14.852Z,0.70
2023-03-31T15:29:47.806Z,0.70
2023-03-31T15:32:25.877Z,0.70
2023-03-31T15:34:52.829Z,0.90
2023-03-31T15:37:27.905Z,1.02
2023-03-31T15:39:56.676Z,0.88
2023-03-31T15:42:23.199Z,0.85
2023-03-31T15:44:57.295Z,0.90
2023-03-31T15:47:29.198Z,1.00
2023-03-31T15:50:08.253Z,0.88
2023-03-31T15:52:36.091Z,0.95
2023-03-31T15:55:22.553Z,0.90
2023-03-31T15:57:49.715Z,1.00
2023-03-31T16:00:34.367Z,1.02
2023-03-31T16:03:01.856Z,0.80
2023-03-31T16:08:43.002Z,0.68
2023-03-31T16:11:13.533Z,0.80
2023-03-31T16:13:42.184Z,0.60
2023-03-31T16:16:09.865Z,0.47
2023-03-31T16:18:38.374Z,0.68
2023-03-31T16:21:06.646Z,0.50
2023-03-31T16:23:35.347Z,0.65
2023-03-31T16:26:02.396Z,0.57
2023-03-31T16:28:31.181Z,0.40
2023-03-31T16:31:01.808Z,0.50
2023-03-31T16:33:31.030Z,0.40
2023-03-31T16:35:58.957Z,0.57
2023-03-31T16:38:27.020Z,0.50
2023-03-31T16:40:54.701Z,0.30
2023-03-31T16:43:22.512Z,0.47
2023-03-31T16:45:50.034Z,0.52
2023-03-31T16:48:17.653Z,0.50
2023-03-31T16:50:49.070Z,0.43
2023-03-31T16:53:18.937Z,0.40
2023-03-31T16:55:45.772Z,0.30
2023-03-31T16:58:12.692Z,0.40
2023-03-31T17:00:40.793Z,0.30
2023-03-31T17:03:08.267Z,0.40
2023-03-31T17:05:55.760Z,0.30
2023-03-31T17:08:25.395Z,0.30
2023-03-31T17:10:53.563Z,0.40
2023-03-31T17:13:20.703Z,0.30
2023-03-31T17:15:47.763Z,0.28
2023-03-31T17:18:14.920Z,0.47
2023-03-31T17:20:41.547Z,0.40
2023-03-31T17:23:08.042Z,0.40
2023-03-31T17:25:36.171Z,0.40
2023-03-31T17:28:04.414Z,0.30
2023-03-31T17:30:31.855Z,0.40
2023-03-31T17:32:58.567Z,0.40
2023-03-31T17:35:25.450Z,0.40
2023-03-31T17:37:53.808Z,0.30
2023-03-31T17:40:21.052Z,0.77
2023-03-31T17:42:47.622Z,0.30
2023-03-31T17:45:14.371Z,0.40
2023-03-31T17:47:42.029Z,0.40
2023-03-31T17:50:08.950Z,0.52
2023-03-31T17:52:35.814Z,0.50
2023-03-31T17:55:04.240Z,0.57
2023-03-31T17:57:31.381Z,0.40
2023-03-31T17:59:57.934Z,0.60
2023-03-31T18:02:24.612Z,0.50
2023-03-31T18:04:51.148Z,0.35
2023-03-31T18:07:23.150Z,0.60
2023-03-31T18:09:49.910Z,0.50
2023-03-31T18:12:16.670Z,0.50
2023-03-31T18:14:43.242Z,0.60
2023-03-31T18:17:14.699Z,0.57
2023-03-31T18:19:42.095Z,0.60
2023-03-31T18:22:08.994Z,0.57
2023-03-31T18:24:38.300Z,0.80
2023-03-31T18:27:05.678Z,0.50
2023-03-31T18:29:32.330Z,0.50
2023-03-31T18:31:58.986Z,0.60
2023-03-31T18:34:25.698Z,0.60
2023-03-31T18:36:53.372Z,0.50
2023-03-31T18:39:19.933Z,0.40
2023-03-31T18:41:47.745Z,0.80
2023-03-31T18:44:16.833Z,0.43
2023-03-31T18:46:44.040Z,0.50
2023-03-31T18:49:11.269Z,0.68
2023-03-31T18:51:37.715Z,0.50
2023-03-31T18:54:04.392Z,0.70
2023-03-31T18:56:31.584Z,0.50
2023-03-31T18:58:58.619Z,0.50
2023-03-31T19:01:25.516Z,0.70
2023-03-31T19:03:52.000Z,0.60
2023-03-31T19:06:21.051Z,0.70
2023-03-31T19:08:47.497Z,0.73
2023-03-31T19:11:15.461Z,0.60
2023-03-31T19:13:43.004Z,0.60
2023-03-31T19:16:10.410Z,0.52
2023-03-31T19:18:37.577Z,0.70
2023-03-31T19:21:04.058Z,0.60
2023-03-31T19:23:31.047Z,0.50
2023-03-31T19:25:57.835Z,0.57
2023-03-31T19:28:24.768Z,0.60
2023-03-31T19:30:52.395Z,0.60
2023-03-31T19:33:19.823Z,0.73
2023-03-31T19:35:47.566Z,0.77
2023-03-31T19:38:14.410Z,0.70
2023-03-31T19:40:42.117Z,0.60
2023-03-31T19:43:22.982Z,0.68
2023-03-31T19:45:50.439Z,0.80
2023-03-31T19:48:17.403Z,1.00
2023-03-31T19:50:51.313Z,0.70
2023-03-31T19:53:18.458Z,0.60
2023-03-31T19:55:44.868Z,0.70
2023-03-31T19:58:11.671Z,0.90
2023-03-31T20:00:38.166Z,0.85
2023-03-31T20:03:04.681Z,1.10
2023-03-31T20:05:32.544Z,0.90
2023-03-31T20:07:58.982Z,0.90
2023-03-31T20:10:25.765Z,0.80
2023-03-31T20:12:52.328Z,1.13
2023-03-31T20:15:18.880Z,1.10
2023-03-31T20:17:45.940Z,0.90
2023-03-31T20:20:12.787Z,1.05
2023-03-31T20:22:41.294Z,1.23
2023-03-31T20:25:07.998Z,1.10
2023-03-31T20:27:34.457Z,1.20
2023-03-31T20:30:00.947Z,0.82
2023-03-31T20:32:27.764Z,1.00
2023-03-31T20:34:54.753Z,1.00
2023-03-31T20:37:21.209Z,0.95
2023-03-31T20:39:48.541Z,0.80
2023-03-31T20:42:15.147Z,0.88
2023-03-31T20:44:41.856Z,1.15
2023-03-31T20:47:09.304Z,0.82
2023-03-31T20:49:35.823Z,0.63
2023-03-31T20:52:02.641Z,0.85
2023-03-31T20:54:29.062Z,1.10
2023-03-31T20:56:55.849Z,1.17
2023-03-31T20:59:23.107Z,0.98
2023-03-31T21:01:49.684Z,0.98
2023-03-31T21:04:17.153Z,0.90
2023-03-31T21:06:44.894Z,0.90
2023-03-31T21:09:12.384Z,0.70
2023-03-31T21:11:41.992Z,0.90
2023-03-31T21:14:11.332Z,0.70
2023-03-31T21:16:37.886Z,1.15
2023-03-31T21:19:04.381Z,0.82
2023-03-31T21:21:31.488Z,0.90
2023-03-31T21:23:57.983Z,0.90
2023-03-31T21:26:25.081Z,1.02
2023-03-31T21:28:55.702Z,0.60
2023-03-31T21:31:24.242Z,0.70
2023-03-31T21:33:51.783Z,0.65
2023-03-31T21:36:20.465Z,0.77
2023-03-31T21:38:46.995Z,0.68
2023-03-31T21:41:22.651Z,0.70
2023-03-31T21:43:49.862Z,0.80
2023-03-31T21:46:20.550Z,0.60
2023-03-31T21:48:47.918Z,0.63
2023-03-31T21:51:14.717Z,0.75
2023-03-31T21:53:41.370Z,0.82
2023-03-31T21:56:07.814Z,0.70
2023-03-31T21:58:34.323Z,0.52
2023-03-31T22:01:04.010Z,0.80
2023-03-31T22:03:34.618Z,0.80
2023-03-31T22:06:02.302Z,0.70
2023-03-31T22:08:29.297Z,0.80
2023-03-31T22:10:56.454Z,0.77
2023-03-31T22:13:23.700Z,0.85
2023-03-31T22:15:50.670Z,0.68
2023-03-31T22:18:17.525Z,0.93
2023-03-31T22:20:44.297Z,1.10
2023-03-31T22:23:10.922Z,1.00
2023-03-31T22:25:37.359Z,1.20
2023-03-31T22:28:05.988Z,1.25
2023-03-31T22:30:33.656Z,1.13
2023-03-31T22:33:00.216Z,1.23
2023-03-31T22:35:26.849Z,1.55
2023-03-31T22:37:53.229Z,1.42
2023-03-31T22:40:19.765Z,1.40
2023-03-31T22:42:46.317Z,1.60
2023-03-31T22:45:12.733Z,2.13
2023-03-31T22:47:42.219Z,1.70
2023-03-31T22:50:09.858Z,2.13
2023-03-31T22:52:36.320Z,1.80
2023-03-31T22:55:02.804Z,1.70
2023-03-31T22:57:29.554Z,1.52
2023-03-31T22:59:56.197Z,1.50
2023-03-31T23:02:22.641Z,1.90
2023-03-31T23:04:49.108Z,1.58
2023-03-31T23:07:16.889Z,1.55
2023-03-31T23:09:43.405Z,1.95
2023-03-31T23:12:09.853Z,2.08
2023-03-31T23:14:36.485Z,1.63
2023-03-31T23:17:02.934Z,1.77
2023-03-31T23:19:29.343Z,1.50
2023-03-31T23:21:55.793Z,1.60
2023-03-31T23:24:23.072Z,1.52
2023-03-31T23:26:49.472Z,1.77
2023-03-31T23:29:16.007Z,1.70
2023-03-31T23:31:42.785Z,1.70
2023-03-31T23:34:10.155Z,1.90
2023-03-31T23:36:36.512Z,2.20
2023-03-31T23:39:03.333Z,2.20
2023-03-31T23:41:29.935Z,2.30
2023-03-31T23:43:57.800Z,2.50
2023-03-31T23:46:26.114Z,2.42
2023-03-31T23:48:52.731Z,2.30
2023-03-31T23:51:19.132Z,2.40
2023-03-31T23:53:45.561Z,2.05
2023-03-31T23:56:12.993Z,2.47
2023-03-31T23:58:40.260Z,2.28
